sensor_id;sensor_type;location;lat;lon;timestamp;pressure;altitude;pressure_sealevel;temperature;humidity
41862;BME280;27537;57.134;-2.136;2024-03-02T00:01:10;98725.59;;;6.06;100.00
41862;BME280;27537;57.134;-2.136;2024-03-02T00:03:37;98720.31;;;6.07;100.00
41862;BME280;27537;57.134;-2.136;2024-03-02T00:06:04;98708.78;;;5.96;100.00
41862;BME280;27537;57.134;-2.136;2024-03-02T00:08:31;98723.81;;;5.89;100.00
41862;BME280;27537;57.134;-2.136;2024-03-02T00:10:59;98716.94;;;5.88;100.00
41862;BME280;27537;57.134;-2.136;2024-03-02T00:13:26;98707.09;;;5.77;100.00
41862;BME280;27537;57.134;-2.136;2024-03-02T00:15:54;98705.31;;;5.95;100.00
41862;BME280;27537;57.134;-2.136;2024-03-02T00:18:32;98709.31;;;5.85;100.00
41862;BME280;27537;57.134;-2.136;2024-03-02T00:20:59;98705.94;;;5.83;100.00
41862;BME280;27537;57.134;-2.136;2024-03-02T00:23:29;98698.44;;;5.94;100.00
41862;BME280;27537;57.134;-2.136;2024-03-02T00:25:58;98696.47;;;5.99;100.00
41862;BME280;27537;57.134;-2.136;2024-03-02T00:28:29;98701.50;;;6.20;100.00
41862;BME280;27537;57.134;-2.136;2024-03-02T00:33:28;98700.44;;;6.06;100.00
41862;BME280;27537;57.134;-2.136;2024-03-02T00:35:56;98697.13;;;6.20;100.00
41862;BME280;27537;57.134;-2.136;2024-03-02T00:38:23;98708.75;;;6.13;100.00
41862;BME280;27537;57.134;-2.136;2024-03-02T00:40:50;98703.56;;;6.13;100.00
41862;BME280;27537;57.134;-2.136;2024-03-02T00:43:52;98690.97;;;6.05;100.00
41862;BME280;27537;57.134;-2.136;2024-03-02T00:46:23;98697.50;;;5.97;100.00
41862;BME280;27537;57.134;-2.136;2024-03-02T00:48:55;98692.03;;;6.01;100.00
41862;BME280;27537;57.134;-2.136;2024-03-02T00:51:24;98694.16;;;5.93;100.00
41862;BME280;27537;57.134;-2.136;2024-03-02T00:53:58;98696.84;;;5.92;100.00
41862;BME280;27537;57.134;-2.136;2024-03-02T00:56:25;98702.88;;;5.92;100.00
41862;BME280;27537;57.134;-2.136;2024-03-02T00:58:53;98702.88;;;5.92;100.00
41862;BME280;27537;57.134;-2.136;2024-03-02T01:01:19;98698.16;;;5.83;100.00
41862;BME280;27537;57.134;-2.136;2024-03-02T01:03:46;98713.72;;;6.18;100.00
41862;BME280;27537;57.134;-2.136;2024-03-02T01:06:14;98694.91;;;5.97;100.00
41862;BME280;27537;57.134;-2.136;2024-03-02T01:08:41;98704.34;;;5.98;100.00
41862;BME280;27537;57.134;-2.136;2024-03-02T01:11:08;98703.78;;;5.91;100.00
41862;BME280;27537;57.134;-2.136;2024-03-02T01:13:35;98705.09;;;5.82;100.00
41862;BME280;27537;57.134;-2.136;2024-03-02T01:16:02;98710.66;;;5.92;100.00
41862;BME280;27537;57.134;-2.136;2024-03-02T01:18:29;98699.00;;;6.01;100.00
41862;BME280;27537;57.134;-2.136;2024-03-02T01:20:55;98709.94;;;6.07;100.00
41862;BME280;27537;57.134;-2.136;2024-03-02T01:23:23;98708.09;;;6.10;100.00
41862;BME280;27537;57.134;-2.136;2024-03-02T01:25:50;98714.66;;;5.99;100.00
41862;BME280;27537;57.134;-2.136;2024-03-02T01:28:18;98719.78;;;6.01;100.00
41862;BME280;27537;57.134;-2.136;2024-03-02T01:30:45;98715.34;;;6.03;100.00
41862;BME280;27537;57.134;-2.136;2024-03-02T01:33:12;98727.31;;;6.05;100.00
41862;BME280;27537;57.134;-2.136;2024-03-02T01:35:39;98722.66;;;5.95;100.00
41862;BME280;27537;57.134;-2.136;2024-03-02T01:38:06;98732.84;;;5.99;100.00
41862;BME280;27537;57.134;-2.136;2024-03-02T01:40:37;98725.88;;;6.00;100.00
41862;BME280;27537;57.134;-2.136;2024-03-02T01:43:05;98721.63;;;5.99;100.00
41862;BME280;27537;57.134;-2.136;2024-03-02T01:45:32;98724.38;;;5.96;100.00
41862;BME280;27537;57.134;-2.136;2024-03-02T01:47:59;98718.31;;;5.95;100.00
41862;BME280;27537;57.134;-2.136;2024-03-02T01:50:31;98705.47;;;5.92;100.00
41862;BME280;27537;57.134;-2.136;2024-03-02T01:52:59;98726.06;;;5.97;100.00
41862;BME280;27537;57.134;-2.136;2024-03-02T01:55:26;98727.09;;;6.10;100.00
41862;BME280;27537;57.134;-2.136;2024-03-02T01:57:55;98724.91;;;6.02;100.00
41862;BME280;27537;57.134;-2.136;2024-03-02T02:00:22;98716.63;;;5.94;100.00
41862;BME280;27537;57.134;-2.136;2024-03-02T02:02:51;98714.81;;;5.96;100.00
41862;BME280;27537;57.134;-2.136;2024-03-02T02:05:18;98717.78;;;5.88;100.00
41862;BME280;27537;57.134;-2.136;2024-03-02T02:07:45;98718.97;;;6.00;100.00
41862;BME280;27537;57.134;-2.136;2024-03-02T02:10:12;98728.03;;;5.92;100.00
41862;BME280;27537;57.134;-2.136;2024-03-02T02:12:39;98729.16;;;5.86;100.00
41862;BME280;27537;57.134;-2.136;2024-03-02T02:15:22;98720.22;;;5.92;100.00
41862;BME280;27537;57.134;-2.136;2024-03-02T02:17:49;98709.31;;;5.85;100.00
41862;BME280;27537;57.134;-2.136;2024-03-02T02:20:16;98714.56;;;5.83;100.00
41862;BME280;27537;57.134;-2.136;2024-03-02T02:22:59;98719.75;;;5.83;100.00
41862;BME280;27537;57.134;-2.136;2024-03-02T02:25:27;98715.56;;;5.63;100.00
41862;BME280;27537;57.134;-2.136;2024-03-02T02:27:54;98712.59;;;5.71;100.00
41862;BME280;27537;57.134;-2.136;2024-03-02T02:30:26;98703.72;;;5.75;100.00
41862;BME280;27537;57.134;-2.136;2024-03-02T02:32:53;98712.38;;;5.76;100.00
41862;BME280;27537;57.134;-2.136;2024-03-02T02:35:20;98711.50;;;5.75;100.00
41862;BME280;27537;57.134;-2.136;2024-03-02T02:37:48;98699.06;;;5.82;100.00
41862;BME280;27537;57.134;-2.136;2024-03-02T02:40:15;98700.75;;;5.65;100.00
41862;BME280;27537;57.134;-2.136;2024-03-02T02:42:42;98711.59;;;5.74;100.00
41862;BME280;27537;57.134;-2.136;2024-03-02T02:45:09;98701.97;;;5.76;100.00
41862;BME280;27537;57.134;-2.136;2024-03-02T02:47:37;98704.31;;;5.80;100.00
41862;BME280;27537;57.134;-2.136;2024-03-02T02:50:06;98693.56;;;5.53;100.00
41862;BME280;27537;57.134;-2.136;2024-03-02T02:52:34;98693.72;;;5.67;100.00
41862;BME280;27537;57.134;-2.136;2024-03-02T02:55:04;98693.66;;;5.51;100.00
41862;BME280;27537;57.134;-2.136;2024-03-02T02:57:34;98699.66;;;5.52;100.00
41862;BME280;27537;57.134;-2.136;2024-03-02T03:00:05;98691.34;;;5.63;100.00
41862;BME280;27537;57.134;-2.136;2024-03-02T03:02:40;98694.88;;;5.44;100.00
41862;BME280;27537;57.134;-2.136;2024-03-02T03:05:10;98693.72;;;5.67;100.00
41862;BME280;27537;57.134;-2.136;2024-03-02T03:07:37;98690.38;;;5.65;100.00
41862;BME280;27537;57.134;-2.136;2024-03-02T03:10:06;98695.31;;;5.70;100.00
41862;BME280;27537;57.134;-2.136;2024-03-02T03:12:34;98690.66;;;5.77;100.00
41862;BME280;27537;57.134;-2.136;2024-03-02T03:15:02;98699.00;;;5.66;100.00
41862;BME280;27537;57.134;-2.136;2024-03-02T03:17:31;98702.88;;;5.75;100.00
41862;BME280;27537;57.134;-2.136;2024-03-02T03:19:57;98700.22;;;5.76;100.00
41862;BME280;27537;57.134;-2.136;2024-03-02T03:22:25;98695.63;;;5.81;100.00
41862;BME280;27537;57.134;-2.136;2024-03-02T03:24:52;98686.94;;;5.65;100.00
41862;BME280;27537;57.134;-2.136;2024-03-02T03:27:19;98708.00;;;5.76;100.00
41862;BME280;27537;57.134;-2.136;2024-03-02T03:29:46;98705.00;;;5.84;100.00
41862;BME280;27537;57.134;-2.136;2024-03-02T03:32:13;98708.69;;;5.80;100.00
41862;BME280;27537;57.134;-2.136;2024-03-02T03:34:40;98697.75;;;5.90;100.00
41862;BME280;27537;57.134;-2.136;2024-03-02T03:37:07;98702.66;;;5.79;100.00
41862;BME280;27537;57.134;-2.136;2024-03-02T03:39:34;98694.56;;;5.85;100.00
41862;BME280;27537;57.134;-2.136;2024-03-02T03:42:03;98699.00;;;5.83;100.00
41862;BME280;27537;57.134;-2.136;2024-03-02T03:44:30;98688.03;;;5.94;100.00
41862;BME280;27537;57.134;-2.136;2024-03-02T03:46:56;98681.28;;;5.92;100.00
41862;BME280;27537;57.134;-2.136;2024-03-02T03:49:23;98679.44;;;5.94;100.00
41862;BME280;27537;57.134;-2.136;2024-03-02T03:51:50;98686.00;;;5.83;100.00
41862;BME280;27537;57.134;-2.136;2024-03-02T03:54:17;98691.44;;;5.96;100.00
41862;BME280;27537;57.134;-2.136;2024-03-02T03:56:44;98684.84;;;5.89;100.00
41862;BME280;27537;57.134;-2.136;2024-03-02T03:59:10;98688.13;;;5.93;100.00
41862;BME280;27537;57.134;-2.136;2024-03-02T04:01:37;98681.56;;;5.85;100.00
41862;BME280;27537;57.134;-2.136;2024-03-02T04:04:05;98683.47;;;5.82;100.00
41862;BME280;27537;57.134;-2.136;2024-03-02T04:06:31;98683.47;;;5.82;100.00
41862;BME280;27537;57.134;-2.136;2024-03-02T04:08:58;98696.63;;;5.79;100.00
41862;BME280;27537;57.134;-2.136;2024-03-02T04:11:25;98678.97;;;5.68;100.00
41862;BME280;27537;57.134;-2.136;2024-03-02T04:13:52;98673.56;;;5.73;100.00
41862;BME280;27537;57.134;-2.136;2024-03-02T04:16:22;98673.03;;;5.66;100.00
41862;BME280;27537;57.134;-2.136;2024-03-02T04:18:49;98674.31;;;5.57;100.00
41862;BME280;27537;57.134;-2.136;2024-03-02T04:21:15;98679.84;;;5.68;100.00
41862;BME280;27537;57.134;-2.136;2024-03-02T04:23:42;98681.66;;;5.66;100.00
41862;BME280;27537;57.134;-2.136;2024-03-02T04:26:09;98691.44;;;5.61;100.00
41862;BME280;27537;57.134;-2.136;2024-03-02T04:28:36;98694.63;;;5.66;100.00
41862;BME280;27537;57.134;-2.136;2024-03-02T04:31:02;98698.16;;;5.65;100.00
41862;BME280;27537;57.134;-2.136;2024-03-02T04:33:29;98699.31;;;5.77;100.00
41862;BME280;27537;57.134;-2.136;2024-03-02T04:35:56;98693.50;;;5.72;100.00
41862;BME280;27537;57.134;-2.136;2024-03-02T04:38:24;98685.09;;;5.67;100.00
41862;BME280;27537;57.134;-2.136;2024-03-02T04:40:50;98689.63;;;5.63;100.00
41862;BME280;27537;57.134;-2.136;2024-03-02T04:43:17;98692.34;;;5.60;100.00
41862;BME280;27537;57.134;-2.136;2024-03-02T04:45:44;98694.03;;;5.61;100.00
41862;BME280;27537;57.134;-2.136;2024-03-02T04:48:11;98697.47;;;5.62;100.00
41862;BME280;27537;57.134;-2.136;2024-03-02T04:50:38;98694.34;;;5.55;100.00
41862;BME280;27537;57.134;-2.136;2024-03-02T04:53:05;98700.06;;;5.62;100.00
41862;BME280;27537;57.134;-2.136;2024-03-02T04:55:31;98701.53;;;5.67;100.00
41862;BME280;27537;57.134;-2.136;2024-03-02T04:58:01;98690.16;;;5.53;100.00
41862;BME280;27537;57.134;-2.136;2024-03-02T05:00:30;98705.88;;;5.67;100.00
41862;BME280;27537;57.134;-2.136;2024-03-02T05:02:57;98710.91;;;5.70;100.00
41862;BME280;27537;57.134;-2.136;2024-03-02T05:05:23;98705.19;;;5.63;100.00
41862;BME280;27537;57.134;-2.136;2024-03-02T05:07:50;98706.25;;;5.77;100.00
41862;BME280;27537;57.134;-2.136;2024-03-02T05:10:17;98705.47;;;5.75;100.00
41862;BME280;27537;57.134;-2.136;2024-03-02T05:12:44;98705.41;;;5.76;100.00
41862;BME280;27537;57.134;-2.136;2024-03-02T05:15:14;98712.19;;;5.79;100.00
41862;BME280;27537;57.134;-2.136;2024-03-02T05:17:42;98706.25;;;5.77;100.00
41862;BME280;27537;57.134;-2.136;2024-03-02T05:20:12;98707.09;;;5.77;100.00
41862;BME280;27537;57.134;-2.136;2024-03-02T05:22:39;98702.81;;;5.76;100.00
41862;BME280;27537;57.134;-2.136;2024-03-02T05:25:06;98704.59;;;5.76;100.00
41862;BME280;27537;57.134;-2.136;2024-03-02T05:27:33;98698.69;;;5.72;100.00
41862;BME280;27537;57.134;-2.136;2024-03-02T05:30:01;98702.13;;;5.73;100.00
41862;BME280;27537;57.134;-2.136;2024-03-02T05:32:27;98700.50;;;5.70;100.00
41862;BME280;27537;57.134;-2.136;2024-03-02T05:34:54;98698.69;;;5.72;100.00
41862;BME280;27537;57.134;-2.136;2024-03-02T05:37:21;98698.53;;;5.75;100.00
41862;BME280;27537;57.134;-2.136;2024-03-02T05:39:48;98702.34;;;5.68;100.00
41862;BME280;27537;57.134;-2.136;2024-03-02T05:42:15;98697.09;;;5.69;100.00
41862;BME280;27537;57.134;-2.136;2024-03-02T05:44:43;98688.00;;;5.61;100.00
41862;BME280;27537;57.134;-2.136;2024-03-02T05:47:10;98689.63;;;5.63;100.00
41862;BME280;27537;57.134;-2.136;2024-03-02T05:49:37;98691.44;;;5.61;100.00
41862;BME280;27537;57.134;-2.136;2024-03-02T05:52:03;98697.53;;;5.60;100.00
41862;BME280;27537;57.134;-2.136;2024-03-02T05:54:30;98687.38;;;5.56;100.00
41862;BME280;27537;57.134;-2.136;2024-03-02T05:56:57;98684.56;;;5.60;100.00
41862;BME280;27537;57.134;-2.136;2024-03-02T05:59:43;98689.00;;;5.58;100.00
41862;BME280;27537;57.134;-2.136;2024-03-02T06:02:12;98692.34;;;5.60;100.00
41862;BME280;27537;57.134;-2.136;2024-03-02T06:04:39;98687.78;;;5.65;100.00
41862;BME280;27537;57.134;-2.136;2024-03-02T06:07:06;98699.38;;;5.58;100.00
41862;BME280;27537;57.134;-2.136;2024-03-02T06:09:33;98707.84;;;5.62;100.00
41862;BME280;27537;57.134;-2.136;2024-03-02T06:11:59;98704.03;;;5.69;100.00
41862;BME280;27537;57.134;-2.136;2024-03-02T06:14:26;98703.78;;;5.74;100.00
41862;BME280;27537;57.134;-2.136;2024-03-02T06:16:53;98698.78;;;5.70;100.00
41862;BME280;27537;57.134;-2.136;2024-03-02T06:19:20;98702.81;;;5.76;100.00
41862;BME280;27537;57.134;-2.136;2024-03-02T06:21:46;98704.72;;;5.73;100.00
41862;BME280;27537;57.134;-2.136;2024-03-02T06:24:13;98707.25;;;5.74;100.00
41862;BME280;27537;57.134;-2.136;2024-03-02T06:26:40;98704.81;;;5.71;100.00
41862;BME280;27537;57.134;-2.136;2024-03-02T06:29:07;98702.81;;;5.76;100.00
41862;BME280;27537;57.134;-2.136;2024-03-02T06:31:34;98697.47;;;5.79;100.00
41862;BME280;27537;57.134;-2.136;2024-03-02T06:34:01;98696.63;;;5.79;100.00
41862;BME280;27537;57.134;-2.136;2024-03-02T06:36:30;98692.63;;;5.89;100.00
41862;BME280;27537;57.134;-2.136;2024-03-02T06:38:56;98693.66;;;5.86;100.00
41862;BME280;27537;57.134;-2.136;2024-03-02T06:41:23;98687.78;;;5.83;100.00
41862;BME280;27537;57.134;-2.136;2024-03-02T06:43:50;98677.31;;;5.67;100.00
41862;BME280;27537;57.134;-2.136;2024-03-02T06:46:20;98673.25;;;5.79;100.00
41862;BME280;27537;57.134;-2.136;2024-03-02T06:48:47;98669.50;;;5.84;100.00
41862;BME280;27537;57.134;-2.136;2024-03-02T06:51:14;98672.88;;;5.86;100.00
41862;BME280;27537;57.134;-2.136;2024-03-02T06:53:42;98677.31;;;5.84;100.00
41862;BME280;27537;57.134;-2.136;2024-03-02T06:56:09;98667.34;;;5.93;100.00
41862;BME280;27537;57.134;-2.136;2024-03-02T06:58:35;98663.63;;;5.98;100.00
41862;BME280;27537;57.134;-2.136;2024-03-02T07:01:02;98671.56;;;5.95;100.00
41862;BME280;27537;57.134;-2.136;2024-03-02T07:03:29;98669.59;;;6.00;100.00
41862;BME280;27537;57.134;-2.136;2024-03-02T07:05:56;98668.59;;;6.03;100.00
41862;BME280;27537;57.134;-2.136;2024-03-02T07:08:23;98660.94;;;6.00;100.00
41862;BME280;27537;57.134;-2.136;2024-03-02T07:10:50;98672.78;;;6.05;100.00
41862;BME280;27537;57.134;-2.136;2024-03-02T07:13:16;98661.16;;;5.95;100.00
41862;BME280;27537;57.134;-2.136;2024-03-02T07:15:43;98658.94;;;6.05;100.00
41862;BME280;27537;57.134;-2.136;2024-03-02T07:18:32;98658.66;;;5.94;100.00
41862;BME280;27537;57.134;-2.136;2024-03-02T07:21:00;98654.34;;;5.93;100.00
41862;BME280;27537;57.134;-2.136;2024-03-02T07:23:27;98660.72;;;6.04;100.00
41862;BME280;27537;57.134;-2.136;2024-03-02T07:25:54;98647.56;;;6.07;100.00
41862;BME280;27537;57.134;-2.136;2024-03-02T07:28:26;98653.59;;;6.08;100.00
41862;BME280;27537;57.134;-2.136;2024-03-02T07:31:02;98647.94;;;6.00;100.00
41862;BME280;27537;57.134;-2.136;2024-03-02T07:33:31;98642.59;;;6.03;100.00
41862;BME280;27537;57.134;-2.136;2024-03-02T07:35:59;98647.56;;;6.07;100.00
41862;BME280;27537;57.134;-2.136;2024-03-02T07:38:30;98640.75;;;6.05;100.00
41862;BME280;27537;57.134;-2.136;2024-03-02T07:40:58;98644.63;;;6.14;100.00
41862;BME280;27537;57.134;-2.136;2024-03-02T07:43:24;98637.78;;;6.13;100.00
41862;BME280;27537;57.134;-2.136;2024-03-02T07:45:51;98636.63;;;6.18;100.00
41862;BME280;27537;57.134;-2.136;2024-03-02T07:48:18;98639.78;;;6.07;100.00
41862;BME280;27537;57.134;-2.136;2024-03-02T07:50:45;98623.19;;;6.10;100.00
41862;BME280;27537;57.134;-2.136;2024-03-02T07:53:11;98625.34;;;6.18;100.00
41862;BME280;27537;57.134;-2.136;2024-03-02T07:55:38;98619.34;;;6.17;100.00
41862;BME280;27537;57.134;-2.136;2024-03-02T07:58:05;98613.47;;;6.30;100.00
41862;BME280;27537;57.134;-2.136;2024-03-02T08:00:32;98620.56;;;6.10;100.00
41862;BME280;27537;57.134;-2.136;2024-03-02T08:02:59;98628.53;;;5.89;100.00
41862;BME280;27537;57.134;-2.136;2024-03-02T08:05:25;98632.81;;;5.90;100.00
41862;BME280;27537;57.134;-2.136;2024-03-02T08:07:53;98616.03;;;5.98;100.00
41862;BME280;27537;57.134;-2.136;2024-03-02T08:10:20;98620.50;;;6.12;100.00
41862;BME280;27537;57.134;-2.136;2024-03-02T08:12:47;98618.88;;;6.09;100.00
41862;BME280;27537;57.134;-2.136;2024-03-02T08:15:14;98618.56;;;6.15;100.00
41862;BME280;27537;57.134;-2.136;2024-03-02T08:17:40;98613.22;;;6.18;100.00
41862;BME280;27537;57.134;-2.136;2024-03-02T08:20:15;98609.69;;;6.19;100.00
41862;BME280;27537;57.134;-2.136;2024-03-02T08:22:42;98611.13;;;6.25;100.00
41862;BME280;27537;57.134;-2.136;2024-03-02T08:25:09;98606.44;;;6.32;100.00
41862;BME280;27537;57.134;-2.136;2024-03-02T08:27:36;98610.13;;;6.27;100.00
41862;BME280;27537;57.134;-2.136;2024-03-02T08:30:03;98604.69;;;6.32;100.00
41862;BME280;27537;57.134;-2.136;2024-03-02T08:32:33;98612.88;;;6.24;100.00
41862;BME280;27537;57.134;-2.136;2024-03-02T08:35:01;98600.88;;;6.06;100.00
41862;BME280;27537;57.134;-2.136;2024-03-02T08:37:27;98598.44;;;6.03;100.00
41862;BME280;27537;57.134;-2.136;2024-03-02T08:39:54;98613.88;;;6.06;100.00
41862;BME280;27537;57.134;-2.136;2024-03-02T08:42:22;98617.19;;;5.75;100.00
41862;BME280;27537;57.134;-2.136;2024-03-02T08:44:50;98604.34;;;5.71;100.00
41862;BME280;27537;57.134;-2.136;2024-03-02T08:47:17;98616.28;;;5.76;100.00
41862;BME280;27537;57.134;-2.136;2024-03-02T08:49:44;98613.00;;;5.72;100.00
41862;BME280;27537;57.134;-2.136;2024-03-02T08:52:13;98612.13;;;5.89;100.00
41862;BME280;27537;57.134;-2.136;2024-03-02T08:54:39;98619.56;;;5.97;100.00
41862;BME280;27537;57.134;-2.136;2024-03-02T08:57:06;98615.88;;;6.01;100.00
41862;BME280;27537;57.134;-2.136;2024-03-02T08:59:34;98617.91;;;5.94;100.00
41862;BME280;27537;57.134;-2.136;2024-03-02T09:02:00;98620.69;;;5.74;100.00
41862;BME280;27537;57.134;-2.136;2024-03-02T09:04:28;98621.16;;;5.82;100.00
41862;BME280;27537;57.134;-2.136;2024-03-02T09:07:00;98618.00;;;5.93;100.00
41862;BME280;27537;57.134;-2.136;2024-03-02T09:09:27;98614.41;;;6.13;100.00
41862;BME280;27537;57.134;-2.136;2024-03-02T09:11:54;98612.59;;;5.97;100.00
41862;BME280;27537;57.134;-2.136;2024-03-02T09:14:24;98615.47;;;5.91;100.00
41862;BME280;27537;57.134;-2.136;2024-03-02T09:16:51;98607.16;;;6.02;100.00
41862;BME280;27537;57.134;-2.136;2024-03-02T09:19:18;98610.84;;;5.98;100.00
41862;BME280;27537;57.134;-2.136;2024-03-02T09:21:45;98612.19;;;6.05;100.00
41862;BME280;27537;57.134;-2.136;2024-03-02T09:24:12;98614.97;;;5.84;100.00
41862;BME280;27537;57.134;-2.136;2024-03-02T09:26:43;98614.38;;;5.79;100.00
41862;BME280;27537;57.134;-2.136;2024-03-02T09:29:10;98614.13;;;5.84;100.00
41862;BME280;27537;57.134;-2.136;2024-03-02T09:31:41;98604.66;;;6.00;100.00
41862;BME280;27537;57.134;-2.136;2024-03-02T09:34:08;98612.69;;;5.96;100.00
41862;BME280;27537;57.134;-2.136;2024-03-02T09:36:34;98611.44;;;6.03;100.00
41862;BME280;27537;57.134;-2.136;2024-03-02T09:39:01;98617.22;;;6.08;100.00
41862;BME280;27537;57.134;-2.136;2024-03-02T09:41:30;98621.00;;;6.02;100.00
41862;BME280;27537;57.134;-2.136;2024-03-02T09:43:59;98624.19;;;6.07;100.00
41862;BME280;27537;57.134;-2.136;2024-03-02T09:46:26;98622.91;;;5.99;100.00
41862;BME280;27537;57.134;-2.136;2024-03-02T09:48:53;98624.66;;;5.98;100.00
41862;BME280;27537;57.134;-2.136;2024-03-02T09:51:20;98631.06;;;5.91;100.00
41862;BME280;27537;57.134;-2.136;2024-03-02T09:53:47;98630.63;;;6.00;100.00
41862;BME280;27537;57.134;-2.136;2024-03-02T09:56:14;98626.59;;;6.11;100.00
41862;BME280;27537;57.134;-2.136;2024-03-02T09:58:42;98629.81;;;6.16;100.00
41862;BME280;27537;57.134;-2.136;2024-03-02T10:01:10;98631.88;;;6.09;100.00
41862;BME280;27537;57.134;-2.136;2024-03-02T10:03:38;98636.63;;;6.18;100.00
41862;BME280;27537;57.134;-2.136;2024-03-02T10:06:22;98624.97;;;6.25;100.00
41862;BME280;27537;57.134;-2.136;2024-03-02T10:08:52;98628.06;;;6.16;100.00
41862;BME280;27537;57.134;-2.136;2024-03-02T10:11:37;98622.22;;;6.29;100.00
41862;BME280;27537;57.134;-2.136;2024-03-02T10:14:09;98631.22;;;6.21;100.00
41862;BME280;27537;57.134;-2.136;2024-03-02T10:16:43;98625.88;;;6.40;100.00
41862;BME280;27537;57.134;-2.136;2024-03-02T10:19:20;98630.69;;;6.32;100.00
41862;BME280;27537;57.134;-2.136;2024-03-02T10:21:52;98641.91;;;6.33;100.00
41862;BME280;27537;57.134;-2.136;2024-03-02T10:24:22;98640.97;;;6.34;100.00
41862;BME280;27537;57.134;-2.136;2024-03-02T10:26:51;98643.41;;;6.37;100.00
41862;BME280;27537;57.134;-2.136;2024-03-02T10:29:17;98640.56;;;6.25;100.00
41862;BME280;27537;57.134;-2.136;2024-03-02T10:31:46;98649.34;;;6.23;100.00
41862;BME280;27537;57.134;-2.136;2024-03-02T10:34:15;98640.41;;;6.29;100.00
41862;BME280;27537;57.134;-2.136;2024-03-02T10:36:45;98646.00;;;6.37;100.00
41862;BME280;27537;57.134;-2.136;2024-03-02T10:39:12;98639.22;;;6.34;100.00
41862;BME280;27537;57.134;-2.136;2024-03-02T10:41:40;98650.00;;;6.26;100.00
41862;BME280;27537;57.134;-2.136;2024-03-02T10:44:09;98645.19;;;6.36;100.00
41862;BME280;27537;57.134;-2.136;2024-03-02T10:46:37;98649.88;;;6.30;100.00
41862;BME280;27537;57.134;-2.136;2024-03-02T10:49:05;98653.22;;;6.32;100.00
41862;BME280;27537;57.134;-2.136;2024-03-02T10:51:35;98659.50;;;6.27;100.00
41862;BME280;27537;57.134;-2.136;2024-03-02T10:54:05;98651.22;;;6.37;100.00
41862;BME280;27537;57.134;-2.136;2024-03-02T10:56:40;98657.16;;;6.39;100.00
41862;BME280;27537;57.134;-2.136;2024-03-02T10:59:17;98653.16;;;6.49;100.00
41862;BME280;27537;57.134;-2.136;2024-03-02T11:01:48;98670.44;;;6.50;100.00
41862;BME280;27537;57.134;-2.136;2024-03-02T11:04:18;98667.31;;;6.43;100.00
41862;BME280;27537;57.134;-2.136;2024-03-02T11:06:49;98660.88;;;6.51;100.00
41862;BME280;27537;57.134;-2.136;2024-03-02T11:09:21;98666.00;;;6.68;100.00
41862;BME280;27537;57.134;-2.136;2024-03-02T11:11:55;98648.31;;;6.75;100.00
41862;BME280;27537;57.134;-2.136;2024-03-02T11:14:24;98666.00;;;6.84;100.00
41862;BME280;27537;57.134;-2.136;2024-03-02T11:16:52;98671.94;;;6.86;100.00
41862;BME280;27537;57.134;-2.136;2024-03-02T11:19:19;98670.44;;;6.82;100.00
41862;BME280;27537;57.134;-2.136;2024-03-02T11:21:47;98676.13;;;7.04;100.00
41862;BME280;27537;57.134;-2.136;2024-03-02T11:26:48;98669.84;;;6.93;100.00
41862;BME280;27537;57.134;-2.136;2024-03-02T11:32:06;98673.03;;;7.14;100.00
41862;BME280;27537;57.134;-2.136;2024-03-02T11:34:41;98677.50;;;7.42;100.00
41862;BME280;27537;57.134;-2.136;2024-03-02T11:37:11;98682.03;;;7.38;100.00
41862;BME280;27537;57.134;-2.136;2024-03-02T11:39:39;98672.53;;;7.37;100.00
41862;BME280;27537;57.134;-2.136;2024-03-02T11:42:07;98675.84;;;7.55;100.00
41862;BME280;27537;57.134;-2.136;2024-03-02T11:44:36;98672.25;;;7.58;100.00
41862;BME280;27537;57.134;-2.136;2024-03-02T11:47:10;98679.13;;;7.73;100.00
41862;BME280;27537;57.134;-2.136;2024-03-02T11:49:42;98682.53;;;7.59;100.00
41862;BME280;27537;57.134;-2.136;2024-03-02T11:52:12;98680.50;;;7.65;100.00
41862;BME280;27537;57.134;-2.136;2024-03-02T11:54:40;98691.22;;;7.60;100.00
41862;BME280;27537;57.134;-2.136;2024-03-02T11:57:14;98695.59;;;7.44;100.00
41862;BME280;27537;57.134;-2.136;2024-03-02T11:59:42;98684.22;;;7.60;100.00
41862;BME280;27537;57.134;-2.136;2024-03-02T12:02:17;98677.81;;;7.66;100.00
41862;BME280;27537;57.134;-2.136;2024-03-02T12:04:45;98699.63;;;7.79;100.00
41862;BME280;27537;57.134;-2.136;2024-03-02T12:07:18;98698.69;;;7.80;100.00
41862;BME280;27537;57.134;-2.136;2024-03-02T12:09:46;98701.25;;;7.66;100.00
41862;BME280;27537;57.134;-2.136;2024-03-02T12:12:13;98703.91;;;7.50;100.00
41862;BME280;27537;57.134;-2.136;2024-03-02T12:14:50;98705.28;;;7.41;100.00
41862;BME280;27537;57.134;-2.136;2024-03-02T12:17:17;98716.03;;;7.51;100.00
41862;BME280;27537;57.134;-2.136;2024-03-02T12:19:46;98713.38;;;7.67;100.00
41862;BME280;27537;57.134;-2.136;2024-03-02T12:22:14;98718.41;;;7.70;100.00
41862;BME280;27537;57.134;-2.136;2024-03-02T12:24:44;98713.13;;;7.56;100.00
41862;BME280;27537;57.134;-2.136;2024-03-02T12:27:13;98726.09;;;7.72;100.00
41862;BME280;27537;57.134;-2.136;2024-03-02T12:29:41;98724.03;;;7.63;100.00
41862;BME280;27537;57.134;-2.136;2024-03-02T12:32:09;98723.59;;;7.40;100.00
41862;BME280;27537;57.134;-2.136;2024-03-02T12:34:50;98730.00;;;7.18;100.00
41862;BME280;27537;57.134;-2.136;2024-03-02T12:37:19;98735.22;;;7.18;100.00
41862;BME280;27537;57.134;-2.136;2024-03-02T12:39:46;98734.66;;;7.44;100.00
41862;BME280;27537;57.134;-2.136;2024-03-02T12:42:14;98739.22;;;7.40;100.00
41862;BME280;27537;57.134;-2.136;2024-03-02T12:44:41;98744.19;;;7.29;100.00
41862;BME280;27537;57.134;-2.136;2024-03-02T12:47:09;98737.28;;;7.28;100.00
41862;BME280;27537;57.134;-2.136;2024-03-02T12:49:40;98739.59;;;7.64;100.00
41862;BME280;27537;57.134;-2.136;2024-03-02T12:52:08;98739.78;;;7.75;100.00
41862;BME280;27537;57.134;-2.136;2024-03-02T12:54:35;98735.81;;;8.29;100.00
41862;BME280;27537;57.134;-2.136;2024-03-02T12:57:04;98746.47;;;8.54;100.00
41862;BME280;27537;57.134;-2.136;2024-03-02T12:59:31;98747.19;;;8.57;100.00
41862;BME280;27537;57.134;-2.136;2024-03-02T13:01:58;98750.28;;;8.49;100.00
41862;BME280;27537;57.134;-2.136;2024-03-02T13:04:26;98750.28;;;8.63;100.00